Airfield :







YOU CAN JOIN US ON...

 
LOGIN :

Register | Disclaimer

   EN    FR    IT 

 









Legend :    VFR   Marginal VFR   IFR   Intensive IFR   Very Intensive IFR
Visi :
Ceiling :
>= 8 km
>= 3000ft
5 to 8 km
1000 to 3000 ft
1500m to 5 km
500 to 1000 ft
800 to 1500m
200 to 500 ft
< 800m
< 200 ft
Symbols :   Thunderstorms  Fog  Heavy snow  Heavy precipitations  Wind > 20 kt







- Airport Elevation : 108 ft
- IATA code : YAY


CYAY - St Anthony

CURRENT METAR :
  • 200529Z AUTO 24016G22KT 9SM SCT006 01/00 A2974 RMK SLP073

EXPIRED METARs :
  • 200524Z AUTO 24016G21KT 9SM BKN006 01/00 A2974 RMK SLP074
  • 200500Z AUTO 24013KT 9SM BKN008 01/00 A2974 RMK SLP075
  • 200454Z AUTO 24011G18KT 9SM BKN008 01/00 A2974 RMK SLP073
  • 200415Z AUTO 24011G16KT 9SM SCT008 00/00 A2972 RMK SLP068
  • 200408Z AUTO 24011G17KT 9SM BKN008 00/00 A2972 RMK SLP068
  • 200300Z AUTO 24012KT 9SM OVC004 00/00 A2970 RMK PRESRR SLP060

TAF TAF CYAY
Valid from the 20 at 02:00 until the 20 at 14:00 UTC


200138Z 2002/2014 23012G22KT 2SM BR OVC004
TEMPO 2002/2004 6SM -RA BR SCT004 OVC050
FM200400 25010G20KT P6SM SCT007 BKN050
TEMPO 2004/2008 3SM BR BKN007
FM200800 25010KT P6SM SCT150 RMK FCST BASED ON AUTO OBS. NXT FCST BY 200800Z
CZQX FIR / North America



MET'MAP, your aeronautical weather chart ! - Copyright ORBIFLY December 2007 - Disclaimer

ORBIFLY MET'MAP TEAM :

Programming & Development : Alexandra Zaïnal
Concept & Development : Baudouin d'Aumeries
Co-Development & Prog : Marc-Olivier Méhu
Technical & hardware support : Manuel Goepfert

Contact : metmap@orbifly.com




SOURCES & CREDITS :

   NOAA